Ana Sayfa
METAR-TAF:

METAR-TAF

Havaalanları :

Emporia-Greensville Regional Airport

Emporia, Virginia, Amerika Birleşik Devletleri

Enlem: 36-41-13N, Boylam: 077-28-58W, yükseklik: 39 m

Güncel hava durumu gözlemi

Rapor saat 03:35 UTC de 22 dakika önce yapıldı.
Sakin rüzgar
Sıcaklık 25°C
Nem 89%
Basınç 1019 hPa
Görüş mesafesi: 16.1 km
Açık gökyüzü

METAR: KEMV 160335Z AUTO 00000KT 10SM CLR 25/23 A3010 RMK AO2 T02490229

Saat: 23:57 (03:57 UTC)


TAF: eksik

4.000'den fazla havaalanı için hava durumu gözlemleri ve tahminleri (METAR ve TAF raporları).

Kullanılabilir istasyonlar harita üzerinde sarı ve kırmızı noktalarla gösterilir.

İstasyonun adını görmek için fareyi noktanın üzerinde gezdirin.

Sonrasında hava gözlem ve tahminlerini görmek için tıklayın.

Haritayı değiştirmek için: yaklaştırmak için siyah artı işaretli yeşil düğmeye ve uzaklaştırmak için de eksi işaretli düğmeye hızla tıklayın; bitişik haritalar için yeşil okları kullanın.


METAR-TAF: